createdAt,value
2023-06-19T00:02:16.276Z,96206.91
2023-06-19T00:07:18.749Z,96202.34
2023-06-19T00:12:21.408Z,96197.31
2023-06-19T00:17:27.628Z,96205.44
2023-06-19T00:22:30.387Z,96208.25
2023-06-19T00:27:35.682Z,96193.09
2023-06-19T00:32:48.004Z,96212.44
2023-06-19T00:37:50.926Z,96213.63
2023-06-19T00:43:08.907Z,96201.38
2023-06-19T00:48:12.458Z,96187.38
2023-06-19T00:53:15.509Z,96211.63
2023-06-19T00:58:19.462Z,96216.16
2023-06-19T01:03:23.293Z,96202.34
2023-06-19T01:08:52.449Z,96220.72
2023-06-19T01:14:02.402Z,96202.09
2023-06-19T01:19:06.877Z,96194.50
2023-06-19T01:24:09.547Z,96202.66
2023-06-19T01:29:12.204Z,96210.06
2023-06-19T01:34:18.699Z,96196.59
2023-06-19T01:39:22.113Z,96209.25
2023-06-19T01:44:24.791Z,96202.53
2023-06-19T01:49:27.594Z,96200.94
2023-06-19T01:54:30.249Z,96188.41
2023-06-19T01:59:32.410Z,96186.66
2023-06-19T02:04:35.229Z,96188.56
2023-06-19T02:09:40.875Z,96185.63
2023-06-19T02:14:43.583Z,96200.97
2023-06-19T02:19:47.917Z,96208.00
2023-06-19T02:24:50.648Z,96225.81
2023-06-19T02:29:53.337Z,96215.94
2023-06-19T02:34:56.077Z,96221.94
2023-06-19T02:39:59.590Z,96219.56
2023-06-19T02:45:04.655Z,96230.47
2023-06-19T02:50:07.574Z,96235.25
2023-06-19T02:55:12.911Z,96234.47
2023-06-19T03:00:15.622Z,96246.97
2023-06-19T03:05:19.373Z,96239.06
2023-06-19T03:10:23.191Z,96248.84
2023-06-19T03:15:27.512Z,96225.69
2023-06-19T03:20:31.028Z,96205.69
2023-06-19T03:25:36.460Z,96216.06
2023-06-19T03:30:40.171Z,96202.13
2023-06-19T03:35:44.115Z,96222.78
2023-06-19T03:40:56.713Z,96211.44
2023-06-19T03:45:59.563Z,96217.25
2023-06-19T03:51:02.549Z,96229.63
2023-06-19T03:56:05.358Z,96254.78
2023-06-19T04:01:08.703Z,96224.66
2023-06-19T04:06:11.588Z,96237.00
2023-06-19T04:11:16.074Z,96221.31
2023-06-19T04:16:18.864Z,96244.44
2023-06-19T04:21:21.847Z,96243.38
2023-06-19T04:26:25.943Z,96244.84
2023-06-19T04:31:29.763Z,96243.16
2023-06-19T04:36:33.126Z,96231.00
2023-06-19T04:41:35.316Z,96240.59
2023-06-19T04:46:39.199Z,96239.13
2023-06-19T04:51:42.692Z,96233.88
2023-06-19T04:56:45.314Z,96220.22
2023-06-19T05:01:47.953Z,96224.06
2023-06-19T05:06:51.956Z,96236.50
2023-06-19T05:11:54.738Z,96220.41
2023-06-19T05:16:57.297Z,96208.47
2023-06-19T05:21:59.976Z,96212.94
2023-06-19T05:27:02.251Z,96230.25
2023-06-19T05:32:05.582Z,96216.00
2023-06-19T05:37:07.882Z,96205.97
2023-06-19T05:42:10.681Z,96181.06
2023-06-19T05:47:13.362Z,96181.59
2023-06-19T05:52:16.304Z,96183.81
2023-06-19T05:57:22.249Z,96171.31
2023-06-19T06:02:25.387Z,96161.88
2023-06-19T06:07:30.056Z,96150.53
2023-06-19T06:12:36.186Z,96171.97
2023-06-19T06:17:39.193Z,96175.75
2023-06-19T06:22:42.737Z,96164.25
2023-06-19T06:27:46.001Z,96156.63
2023-06-19T06:32:49.159Z,96149.28
2023-06-19T06:37:51.438Z,96145.81
2023-06-19T06:42:55.191Z,96130.88
2023-06-19T06:47:57.783Z,96131.72
2023-06-19T06:53:00.628Z,96118.75
2023-06-19T06:58:02.994Z,96130.22
2023-06-19T07:03:05.770Z,96110.91
2023-06-19T07:08:08.494Z,96138.94
2023-06-19T07:13:11.257Z,96144.69
2023-06-19T07:18:14.144Z,96151.13
2023-06-19T07:23:17.228Z,96137.41
2023-06-19T07:28:19.564Z,96146.53
2023-06-19T07:33:22.184Z,96147.16
2023-06-19T07:38:25.224Z,96161.06
2023-06-19T07:43:28.036Z,96154.47
2023-06-19T07:48:31.282Z,96162.34
2023-06-19T07:53:33.663Z,96175.66
2023-06-19T07:58:36.416Z,96164.41
2023-06-19T08:03:39.329Z,96182.56
2023-06-19T08:08:42.311Z,96143.72
2023-06-19T08:13:44.971Z,96173.53
2023-06-19T08:18:47.664Z,96179.00
2023-06-19T08:23:50.416Z,96174.13
2023-06-19T08:28:53.164Z,96170.78
2023-06-19T08:33:56.217Z,96191.13
2023-06-19T08:38:59.978Z,96176.66
2023-06-19T08:44:04.557Z,96172.00
2023-06-19T08:49:11.618Z,96200.59
2023-06-19T08:54:14.833Z,96163.81
2023-06-19T08:59:19.557Z,96196.84
2023-06-19T09:04:24.874Z,96175.38
2023-06-19T09:09:28.184Z,96189.66
2023-06-19T09:14:34.247Z,96199.69
2023-06-19T09:19:37.070Z,96189.09
2023-06-19T09:24:41.581Z,96191.38
2023-06-19T09:29:49.596Z,96198.50
2023-06-19T09:34:54.166Z,96200.59
2023-06-19T09:40:01.206Z,96180.69
2023-06-19T09:45:09.216Z,96190.56
2023-06-19T09:50:15.354Z,96196.34
2023-06-19T09:55:21.169Z,96186.75
2023-06-19T10:00:28.074Z,96179.91
2023-06-19T10:05:32.235Z,96171.34
2023-06-19T10:10:35.624Z,96155.91
2023-06-19T10:15:46.018Z,96175.41
2023-06-19T10:20:48.903Z,96136.78
2023-06-19T10:25:55.069Z,96172.25
2023-06-19T10:31:00.128Z,96160.50
2023-06-19T10:36:06.469Z,96127.34
2023-06-19T10:41:23.713Z,96155.50
2023-06-19T10:46:31.521Z,96148.72
2023-06-19T10:51:42.942Z,96134.84
2023-06-19T10:56:45.748Z,96118.84
2023-06-19T11:01:51.856Z,96130.31
2023-06-19T11:06:54.527Z,96130.44
2023-06-19T11:11:57.256Z,96125.34
2023-06-19T11:17:00.038Z,96122.94
2023-06-19T11:22:04.445Z,96108.22
2023-06-19T11:27:07.575Z,96119.97
2023-06-19T11:32:24.216Z,96117.44
2023-06-19T11:37:30.931Z,96127.50
2023-06-19T11:42:34.438Z,96123.34
2023-06-19T11:47:38.700Z,96121.25
2023-06-19T11:52:42.206Z,96105.28
2023-06-19T11:57:45.281Z,96141.75
2023-06-19T12:02:48.888Z,96113.91
2023-06-19T12:07:52.306Z,96125.56
2023-06-19T12:12:54.949Z,96113.50
2023-06-19T12:17:59.530Z,96111.84
2023-06-19T12:23:02.344Z,96114.50
2023-06-19T12:28:06.989Z,96097.19
2023-06-19T12:33:09.910Z,96083.25
2023-06-19T12:38:12.702Z,96097.16
2023-06-19T12:43:15.370Z,96078.25
2023-06-19T12:48:18.665Z,96062.28
2023-06-19T12:53:22.870Z,96071.91
2023-06-19T12:58:25.882Z,96063.31
2023-06-19T13:03:28.720Z,96084.09
2023-06-19T13:08:31.466Z,96051.31
2023-06-19T13:13:34.314Z,96067.69
2023-06-19T13:18:37.242Z,96057.78
2023-06-19T13:23:40.017Z,96081.38
2023-06-19T13:28:42.868Z,96084.34
2023-06-19T13:33:45.463Z,96039.63
2023-06-19T13:38:48.285Z,96081.91
2023-06-19T13:43:52.176Z,96041.06
2023-06-19T13:48:54.980Z,96057.06
2023-06-19T13:54:00.768Z,96025.72
2023-06-19T13:59:04.136Z,96033.94
2023-06-19T14:04:06.422Z,96058.72
2023-06-19T14:09:09.245Z,96052.47
2023-06-19T14:14:12.003Z,96069.63
2023-06-19T14:19:15.331Z,96064.50
2023-06-19T14:24:18.250Z,96094.53
2023-06-19T14:29:22.066Z,96081.44
2023-06-19T14:34:25.136Z,96058.72
2023-06-19T14:39:27.921Z,96102.84
2023-06-19T14:44:30.770Z,96070.53
2023-06-19T14:49:33.062Z,96089.75
2023-06-19T14:54:36.277Z,96093.31
2023-06-19T14:59:38.666Z,96068.44
2023-06-19T15:04:41.612Z,96117.84
2023-06-19T15:09:44.345Z,96120.25
2023-06-19T15:14:47.042Z,96121.25
2023-06-19T15:19:49.723Z,96100.84
2023-06-19T15:24:52.565Z,96123.00
2023-06-19T15:29:55.274Z,96094.47
2023-06-19T15:34:57.958Z,96116.78
2023-06-19T15:40:02.764Z,96131.13
2023-06-19T15:45:05.790Z,96113.53
2023-06-19T15:50:08.511Z,96139.81
2023-06-19T15:55:11.354Z,96127.56
2023-06-19T16:00:15.414Z,96140.78
2023-06-19T16:05:18.592Z,96149.47
2023-06-19T16:10:20.960Z,96137.63
2023-06-19T16:15:29.270Z,96136.84
2023-06-19T16:20:31.980Z,96145.47
2023-06-19T16:25:34.619Z,96146.69
2023-06-19T16:30:37.274Z,96124.84
2023-06-19T16:35:39.884Z,96143.19
2023-06-19T16:40:42.615Z,96148.38
2023-06-19T16:45:45.299Z,96143.06
2023-06-19T16:50:47.517Z,96155.09
2023-06-19T16:55:50.558Z,96152.25
2023-06-19T17:00:54.054Z,96142.25
2023-06-19T17:05:56.730Z,96156.88
2023-06-19T17:10:59.438Z,96160.06
2023-06-19T17:16:02.136Z,96153.59
2023-06-19T17:21:05.039Z,96166.09
2023-06-19T17:26:07.768Z,96163.69
2023-06-19T17:31:13.457Z,96168.78
2023-06-19T17:36:15.714Z,96155.41
2023-06-19T17:41:18.488Z,96189.94
2023-06-19T17:46:21.869Z,96190.66
2023-06-19T17:51:26.064Z,96193.63
2023-06-19T17:56:28.843Z,96194.38
2023-06-19T18:01:31.222Z,96216.75
2023-06-19T18:06:34.382Z,96231.63
2023-06-19T18:11:36.835Z,96226.06
2023-06-19T18:16:39.514Z,96262.56
2023-06-19T18:21:42.114Z,96259.94
2023-06-19T18:26:44.804Z,96268.91
2023-06-19T18:31:47.075Z,96274.22
2023-06-19T18:36:52.411Z,96269.88
2023-06-19T18:41:56.064Z,96285.41
2023-06-19T18:46:58.768Z,96297.94
2023-06-19T18:52:01.050Z,96293.47
2023-06-19T18:57:03.718Z,96312.47
2023-06-19T19:02:08.695Z,96289.03
2023-06-19T19:07:11.976Z,96311.75
2023-06-19T19:12:15.431Z,96334.13
2023-06-19T19:17:31.671Z,96293.25
2023-06-19T20:15:23.676Z,96282.31
2023-06-19T20:20:48.841Z,96329.34
2023-06-19T20:26:24.786Z,96310.19
2023-06-19T20:31:38.409Z,96305.13
2023-06-19T20:42:38.822Z,96253.09
2023-06-19T20:48:30.658Z,96324.34
2023-06-19T23:28:10.205Z,96303.53
2023-06-19T23:33:12.942Z,96290.00
2023-06-19T23:38:15.819Z,96276.84
2023-06-19T23:43:19.234Z,96253.44
2023-06-19T23:48:21.998Z,96318.09
2023-06-19T23:53:24.544Z,96278.63
2023-06-19T23:58:27.305Z,96275.25
